createdAt,value
2022-11-16T00:01:12.033Z,9.38
2022-11-16T00:03:38.378Z,10.00
2022-11-16T00:06:05.386Z,9.95
2022-11-16T00:11:04.983Z,9.98
2022-11-16T00:13:32.079Z,12.57
2022-11-16T00:15:58.342Z,10.65
2022-11-16T00:18:24.756Z,11.13
2022-11-16T00:20:51.139Z,10.00
2022-11-16T00:23:17.708Z,10.65
2022-11-16T00:25:44.274Z,10.13
2022-11-16T00:28:10.938Z,9.57
2022-11-16T00:30:37.404Z,10.18
2022-11-16T00:33:04.267Z,10.45
2022-11-16T00:35:30.547Z,9.77
2022-11-16T00:37:56.769Z,10.93
2022-11-16T00:40:23.321Z,10.52
2022-11-16T00:42:49.637Z,11.32
2022-11-16T00:45:15.903Z,10.75
2022-11-16T00:47:42.125Z,11.48
2022-11-16T00:50:08.555Z,11.85
2022-11-16T00:52:34.835Z,11.75
2022-11-16T00:55:01.085Z,10.88
2022-11-16T00:57:27.315Z,11.05
2022-11-16T00:59:53.590Z,10.73
2022-11-16T01:02:19.821Z,11.90
2022-11-16T01:04:46.077Z,11.38
2022-11-16T01:07:12.387Z,12.23
2022-11-16T01:09:38.642Z,12.82
2022-11-16T01:12:10.881Z,11.85
2022-11-16T01:14:37.498Z,11.77
2022-11-16T01:17:04.285Z,11.25
2022-11-16T01:19:30.534Z,11.02
2022-11-16T01:21:56.810Z,12.10
2022-11-16T01:24:23.228Z,12.00
2022-11-16T01:26:49.492Z,12.00
2022-11-16T01:29:16.118Z,12.35
2022-11-16T01:31:42.353Z,12.73
2022-11-16T01:34:08.646Z,12.15
2022-11-16T01:36:36.652Z,11.68
2022-11-16T01:39:04.304Z,11.80
2022-11-16T01:41:30.571Z,12.05
2022-11-16T01:44:01.691Z,12.35
2022-11-16T01:46:28.220Z,12.73
2022-11-16T01:48:58.247Z,12.65
2022-11-16T01:51:24.688Z,12.55
2022-11-16T01:53:51.007Z,12.15
2022-11-16T01:56:17.373Z,12.02
2022-11-16T01:58:43.758Z,13.63
2022-11-16T02:01:10.030Z,12.75
2022-11-16T02:03:37.280Z,12.07
2022-11-16T02:06:22.444Z,14.13
2022-11-16T02:09:26.482Z,13.38
2022-11-16T02:11:56.919Z,12.60
2022-11-16T02:14:26.244Z,13.50
2022-11-16T02:17:03.012Z,13.82
2022-11-16T02:19:29.213Z,14.95
2022-11-16T02:22:03.480Z,15.52
2022-11-16T02:24:42.123Z,17.23
2022-11-16T02:27:08.333Z,14.18
2022-11-16T02:29:39.831Z,16.15
2022-11-16T02:32:12.116Z,14.50
2022-11-16T02:34:40.632Z,15.70
2022-11-16T02:37:09.240Z,14.50
2022-11-16T02:39:37.088Z,14.48
2022-11-16T02:42:04.028Z,15.13
2022-11-16T02:46:58.620Z,12.65
2022-11-16T02:49:25.566Z,13.30
2022-11-16T02:54:19.266Z,13.05
2022-11-16T02:56:50.372Z,13.73
2022-11-16T02:59:17.858Z,14.73
2022-11-16T03:01:47.963Z,13.60
2022-11-16T03:04:32.743Z,14.75
2022-11-16T03:07:01.924Z,14.07
2022-11-16T03:09:30.009Z,13.93
2022-11-16T03:11:59.304Z,13.65
2022-11-16T03:14:34.648Z,14.88
2022-11-16T03:17:02.186Z,13.38
2022-11-16T03:19:32.345Z,14.52
2022-11-16T03:22:05.085Z,13.40
2022-11-16T03:24:31.794Z,14.35
2022-11-16T03:27:05.442Z,14.40
2022-11-16T03:29:33.473Z,12.88
2022-11-16T03:32:04.586Z,14.77
2022-11-16T03:34:32.709Z,13.63
2022-11-16T03:37:00.295Z,14.13
2022-11-16T03:39:30.218Z,14.75
2022-11-16T03:41:57.147Z,13.98
2022-11-16T03:46:49.676Z,13.73
2022-11-16T03:49:15.944Z,14.88
2022-11-16T03:51:42.443Z,13.23
2022-11-16T03:54:08.661Z,14.57
2022-11-16T03:56:34.904Z,14.13
2022-11-16T03:59:01.152Z,14.00
2022-11-16T04:01:27.441Z,14.55
2022-11-16T04:03:53.772Z,13.77
2022-11-16T04:06:38.889Z,13.73
2022-11-16T04:09:23.613Z,13.88
2022-11-16T04:12:08.991Z,13.88
2022-11-16T04:14:53.727Z,13.15
2022-11-16T04:17:41.664Z,13.07
2022-11-16T04:20:28.068Z,13.18
2022-11-16T04:23:15.929Z,13.55
2022-11-16T04:25:42.870Z,13.75
2022-11-16T04:31:01.239Z,13.00
2022-11-16T04:33:47.139Z,13.23
2022-11-16T04:36:31.930Z,13.15
2022-11-16T04:38:58.222Z,12.50
2022-11-16T04:41:42.943Z,13.48
2022-11-16T04:44:09.603Z,12.93
2022-11-16T04:46:54.477Z,13.43
2022-11-16T04:49:20.718Z,14.15
2022-11-16T04:51:46.947Z,13.90
2022-11-16T04:54:13.202Z,12.65
2022-11-16T04:56:39.605Z,13.07
2022-11-16T04:59:05.821Z,12.68
2022-11-16T05:01:50.563Z,13.60
2022-11-16T05:04:16.845Z,13.35
2022-11-16T05:06:43.128Z,14.13
2022-11-16T05:09:09.442Z,13.38
2022-11-16T05:11:35.682Z,13.00
2022-11-16T05:14:02.444Z,13.38
2022-11-16T05:16:28.754Z,15.65
2022-11-16T05:19:13.696Z,14.25
2022-11-16T05:21:39.945Z,13.82
2022-11-16T05:24:24.726Z,14.60
2022-11-16T05:26:50.968Z,16.50
2022-11-16T05:29:17.230Z,15.88
2022-11-16T05:31:43.619Z,15.55
2022-11-16T05:34:10.202Z,17.08
2022-11-16T05:36:36.630Z,16.52
2022-11-16T05:39:03.268Z,17.58
2022-11-16T05:41:29.489Z,16.40
2022-11-16T05:43:56.039Z,16.25
2022-11-16T05:46:22.710Z,16.55
2022-11-16T05:48:49.043Z,16.80
2022-11-16T05:51:15.508Z,17.48
2022-11-16T05:53:41.763Z,17.35
2022-11-16T05:56:08.214Z,16.63
2022-11-16T05:58:34.754Z,16.60
2022-11-16T06:01:01.185Z,17.83
2022-11-16T06:03:30.643Z,16.30
2022-11-16T06:05:57.512Z,15.90
2022-11-16T06:08:24.080Z,14.63
2022-11-16T06:10:50.412Z,16.40
2022-11-16T06:13:16.638Z,14.18
2022-11-16T06:18:23.143Z,13.98
2022-11-16T06:20:49.655Z,14.52
2022-11-16T06:23:15.897Z,13.73
2022-11-16T06:25:42.366Z,16.48
2022-11-16T06:28:08.595Z,15.07
2022-11-16T06:30:35.075Z,17.48
2022-11-16T06:33:01.446Z,15.82
2022-11-16T06:35:27.668Z,17.25
2022-11-16T06:37:53.896Z,17.88
2022-11-16T06:40:20.138Z,18.63
2022-11-16T06:42:46.346Z,17.98
2022-11-16T06:45:12.829Z,14.45
2022-11-16T06:47:39.085Z,15.27
2022-11-16T06:50:05.497Z,13.73
2022-11-16T06:52:32.049Z,13.02
2022-11-16T06:54:58.379Z,13.88
2022-11-16T06:57:24.625Z,12.32
2022-11-16T06:59:50.877Z,12.85
2022-11-16T07:02:17.094Z,15.50
2022-11-16T07:04:44.311Z,13.63
2022-11-16T07:07:10.566Z,21.95
2022-11-16T07:09:36.915Z,20.40
2022-11-16T07:12:04.056Z,22.42
2022-11-16T07:14:30.286Z,14.10
2022-11-16T07:16:59.870Z,15.02
2022-11-16T07:19:28.158Z,13.73
2022-11-16T07:21:54.408Z,14.25
2022-11-16T07:24:20.642Z,16.80
2022-11-16T07:26:46.911Z,16.92
2022-11-16T07:29:13.831Z,14.07
2022-11-16T07:34:06.228Z,13.07
2022-11-16T07:36:32.455Z,10.88
2022-11-16T07:38:58.676Z,10.65
2022-11-16T07:41:25.030Z,9.40
2022-11-16T07:43:53.419Z,8.27
2022-11-16T07:49:11.196Z,8.15
2022-11-16T07:51:37.784Z,9.57
2022-11-16T07:54:04.011Z,9.57
2022-11-16T07:56:30.424Z,13.52
2022-11-16T07:58:56.879Z,15.05
2022-11-16T08:01:23.193Z,15.65
2022-11-16T08:03:52.422Z,12.70
2022-11-16T08:06:20.923Z,9.65
2022-11-16T08:08:47.138Z,10.55
2022-11-16T08:11:13.395Z,10.35
2022-11-16T08:13:40.796Z,8.02
2022-11-16T08:16:09.301Z,12.07
2022-11-16T08:18:36.774Z,16.33
2022-11-16T08:21:04.050Z,9.80
2022-11-16T08:23:30.973Z,6.57
2022-11-16T08:28:23.442Z,28.50
2022-11-16T08:30:53.871Z,26.50
2022-11-16T08:33:21.422Z,40.80
2022-11-16T08:35:50.985Z,29.13
2022-11-16T08:38:18.534Z,18.92
2022-11-16T08:40:45.160Z,9.15
2022-11-16T08:43:11.689Z,6.38
2022-11-16T08:45:38.922Z,4.75
2022-11-16T08:48:05.768Z,5.25
2022-11-16T08:50:44.154Z,5.13
2022-11-16T08:53:18.501Z,3.95
2022-11-16T08:55:44.754Z,4.03
2022-11-16T08:58:11.282Z,5.05
2022-11-16T09:00:37.762Z,4.55
2022-11-16T09:03:03.988Z,5.25
2022-11-16T09:05:30.204Z,3.70
2022-11-16T09:07:56.500Z,3.92
2022-11-16T09:10:25.840Z,4.18
2022-11-16T09:12:52.399Z,4.55
2022-11-16T09:15:19.313Z,3.80
2022-11-16T09:20:11.789Z,4.93
2022-11-16T09:22:38.025Z,4.85
2022-11-16T09:25:04.704Z,3.38
2022-11-16T09:27:30.961Z,3.13
2022-11-16T09:29:57.219Z,4.03
2022-11-16T09:32:23.533Z,3.75
2022-11-16T09:34:50.021Z,3.95
2022-11-16T09:37:16.348Z,3.75
2022-11-16T09:39:42.626Z,3.35
2022-11-16T09:42:29.444Z,2.78
2022-11-16T09:45:08.279Z,3.38
2022-11-16T09:47:40.237Z,3.97
2022-11-16T09:50:08.264Z,3.35
2022-11-16T09:52:36.709Z,3.10
2022-11-16T09:55:19.991Z,3.55
2022-11-16T09:57:47.100Z,3.47
2022-11-16T10:00:19.439Z,3.45
2022-11-16T10:02:52.471Z,3.30
2022-11-16T10:05:25.834Z,3.30
2022-11-16T10:07:59.040Z,3.38
2022-11-16T10:10:28.177Z,3.53
2022-11-16T10:12:54.388Z,3.60
2022-11-16T10:15:20.655Z,3.90
2022-11-16T10:17:46.914Z,3.15
2022-11-16T10:20:16.194Z,3.10
2022-11-16T10:23:00.883Z,3.40
2022-11-16T10:25:37.316Z,2.63
2022-11-16T10:28:22.515Z,3.20
2022-11-16T10:30:54.476Z,3.05
2022-11-16T10:33:22.011Z,2.00
2022-11-16T10:35:53.535Z,2.47
2022-11-16T10:38:24.995Z,2.03
2022-11-16T10:40:56.215Z,1.92
2022-11-16T10:43:28.203Z,2.25
2022-11-16T10:46:02.783Z,2.00
2022-11-16T10:48:29.222Z,1.80
2022-11-16T10:50:55.805Z,1.50
2022-11-16T10:53:31.886Z,3.72
2022-11-16T10:56:20.312Z,2.95
2022-11-16T10:58:49.797Z,1.90
2022-11-16T11:01:39.500Z,3.15
2022-11-16T11:04:25.357Z,2.50
2022-11-16T11:06:51.683Z,2.67
2022-11-16T11:09:37.722Z,2.22
2022-11-16T11:12:36.199Z,1.80
2022-11-16T11:17:29.857Z,2.80
2022-11-16T11:20:00.036Z,3.08
2022-11-16T11:22:26.675Z,3.60
2022-11-16T11:24:53.279Z,3.72
2022-11-16T11:27:28.716Z,3.17
2022-11-16T11:29:58.516Z,2.58
2022-11-16T11:32:28.486Z,2.95
2022-11-16T11:34:56.055Z,2.53
2022-11-16T11:37:24.232Z,3.80
2022-11-16T11:40:04.053Z,2.78
2022-11-16T11:42:30.523Z,2.80
2022-11-16T11:44:58.654Z,1.83
2022-11-16T11:47:57.418Z,2.28
2022-11-16T11:50:19.176Z,4.03
2022-11-16T11:53:04.011Z,2.65
2022-11-16T11:55:30.627Z,2.05
2022-11-16T11:57:57.448Z,1.85
2022-11-16T12:03:14.958Z,2.53
2022-11-16T12:05:41.192Z,1.77
2022-11-16T12:08:25.744Z,1.70
2022-11-16T12:10:53.641Z,1.60
2022-11-16T12:13:43.106Z,1.75
2022-11-16T12:16:15.522Z,1.30
2022-11-16T12:18:47.732Z,1.63
2022-11-16T12:21:16.654Z,1.35
2022-11-16T12:23:51.884Z,1.42
2022-11-16T12:26:24.234Z,1.17
2022-11-16T12:29:07.599Z,1.55
2022-11-16T12:31:54.111Z,0.93
2022-11-16T12:34:20.307Z,1.70
2022-11-16T12:36:51.448Z,1.30
2022-11-16T12:39:24.048Z,1.27
2022-11-16T12:41:57.898Z,1.55
2022-11-16T12:44:44.359Z,1.17
2022-11-16T12:47:30.157Z,1.92
2022-11-16T12:49:59.404Z,1.30
2022-11-16T12:52:45.316Z,1.30
2022-11-16T12:55:28.127Z,1.27
2022-11-16T12:58:01.728Z,1.25
2022-11-16T13:00:28.668Z,1.42
2022-11-16T13:05:39.416Z,1.25
2022-11-16T13:08:12.367Z,1.95
2022-11-16T13:10:42.902Z,1.27
2022-11-16T13:13:35.493Z,1.48
2022-11-16T13:16:01.993Z,1.48
2022-11-16T13:18:28.716Z,1.75
2022-11-16T13:21:13.775Z,1.30
2022-11-16T13:23:45.937Z,1.85
2022-11-16T13:26:12.153Z,1.70
2022-11-16T13:28:53.911Z,1.35
2022-11-16T13:31:20.350Z,1.30
2022-11-16T13:33:51.221Z,1.45
2022-11-16T13:36:40.402Z,1.27
2022-11-16T13:39:08.175Z,1.10
2022-11-16T13:41:36.091Z,1.48
2022-11-16T13:44:03.265Z,1.33
2022-11-16T13:49:23.851Z,1.58
2022-11-16T13:51:51.651Z,1.17
2022-11-16T13:54:56.481Z,2.20
2022-11-16T13:57:21.388Z,1.25
2022-11-16T13:59:48.930Z,1.60
2022-11-16T14:02:33.799Z,1.42
2022-11-16T14:05:04.837Z,1.38
2022-11-16T14:07:35.920Z,2.28
2022-11-16T14:10:05.516Z,1.42
2022-11-16T14:12:38.055Z,1.65
2022-11-16T14:15:15.617Z,1.58
2022-11-16T14:20:12.236Z,1.55
2022-11-16T14:22:47.083Z,1.50
2022-11-16T14:25:28.326Z,1.70
2022-11-16T14:27:57.373Z,1.75
2022-11-16T14:30:47.008Z,3.00
2022-11-16T14:33:13.916Z,2.45
2022-11-16T14:38:07.635Z,1.90
2022-11-16T14:40:41.421Z,1.75
2022-11-16T14:43:18.650Z,1.75
2022-11-16T14:45:48.015Z,1.85
2022-11-16T14:48:18.757Z,2.22
2022-11-16T14:50:47.734Z,1.38
2022-11-16T14:53:16.355Z,1.50
2022-11-16T14:55:43.278Z,2.75
2022-11-16T15:00:36.275Z,2.42
2022-11-16T15:03:03.273Z,2.00
2022-11-16T15:07:57.880Z,1.85
2022-11-16T15:10:25.146Z,3.25
2022-11-16T15:12:52.646Z,3.88
2022-11-16T15:15:22.140Z,3.83
2022-11-16T15:17:53.234Z,3.83
2022-11-16T15:20:23.930Z,1.83
2022-11-16T15:22:54.704Z,1.60
2022-11-16T15:25:27.019Z,1.88
2022-11-16T15:27:53.755Z,2.97
2022-11-16T15:30:20.879Z,1.58
2022-11-16T15:32:48.063Z,2.97
2022-11-16T15:35:21.852Z,5.40
2022-11-16T15:37:48.341Z,5.75
2022-11-16T15:40:14.822Z,4.05
2022-11-16T15:42:41.364Z,3.63
2022-11-16T15:45:22.186Z,3.72
2022-11-16T15:47:50.068Z,3.00
2022-11-16T15:50:18.141Z,2.88
2022-11-16T15:52:50.083Z,3.55
2022-11-16T15:55:24.160Z,2.83
2022-11-16T15:58:00.816Z,1.92
2022-11-16T16:00:27.802Z,2.07
2022-11-16T16:05:31.895Z,3.17
2022-11-16T16:07:59.506Z,2.97
2022-11-16T16:10:26.565Z,2.60
2022-11-16T16:12:53.801Z,2.58
2022-11-16T16:15:27.321Z,2.83
2022-11-16T16:17:53.831Z,3.42
2022-11-16T16:20:20.922Z,6.25
2022-11-16T16:22:47.429Z,6.72
2022-11-16T16:25:33.306Z,6.60
2022-11-16T16:27:59.681Z,4.25
2022-11-16T16:30:27.736Z,2.85
2022-11-16T16:32:54.006Z,2.17
2022-11-16T16:35:21.732Z,3.17
2022-11-16T16:37:48.516Z,1.67
2022-11-16T16:40:14.869Z,1.60
2022-11-16T16:42:42.833Z,2.53
2022-11-16T16:45:13.991Z,2.42
2022-11-16T16:47:40.232Z,2.45
2022-11-16T16:50:06.630Z,1.77
2022-11-16T16:52:32.887Z,2.03
2022-11-16T16:54:59.140Z,2.08
2022-11-16T16:57:25.415Z,1.25
2022-11-16T16:59:51.658Z,1.95
2022-11-16T17:02:18.007Z,2.15
2022-11-16T17:04:46.538Z,1.73
2022-11-16T17:07:12.929Z,1.90
2022-11-16T17:09:39.184Z,2.08
2022-11-16T17:12:05.530Z,3.53
2022-11-16T17:14:31.737Z,1.67
2022-11-16T17:16:58.029Z,2.03
2022-11-16T17:19:24.271Z,3.00
2022-11-16T17:21:53.967Z,2.65
2022-11-16T17:24:20.371Z,2.60
2022-11-16T17:26:50.494Z,3.80
2022-11-16T17:29:16.984Z,4.38
2022-11-16T17:31:44.707Z,4.93
2022-11-16T17:34:13.697Z,3.97
2022-11-16T17:36:40.737Z,3.45
2022-11-16T17:39:06.975Z,2.58
2022-11-16T17:41:33.274Z,2.40
2022-11-16T17:43:59.614Z,2.85
2022-11-16T17:46:26.110Z,2.70
2022-11-16T17:48:52.508Z,2.58
2022-11-16T17:51:20.110Z,2.95
2022-11-16T17:53:46.820Z,2.63
2022-11-16T17:56:17.304Z,2.80
2022-11-16T17:58:45.111Z,2.80
2022-11-16T18:01:11.809Z,2.60
2022-11-16T18:03:38.738Z,2.58
2022-11-16T18:06:09.283Z,3.08
2022-11-16T18:08:36.438Z,3.55
2022-11-16T18:11:22.994Z,2.55
2022-11-16T18:13:53.372Z,3.25
2022-11-16T18:16:21.110Z,2.75
2022-11-16T18:18:47.779Z,2.70
2022-11-16T18:21:20.361Z,2.60
2022-11-16T18:23:47.115Z,2.78
2022-11-16T18:26:14.735Z,2.60
2022-11-16T18:28:41.240Z,2.75
2022-11-16T18:31:09.646Z,2.10
2022-11-16T18:33:36.879Z,2.92
2022-11-16T18:36:04.179Z,2.35
2022-11-16T18:38:30.482Z,2.80
2022-11-16T18:41:02.829Z,3.40
2022-11-16T18:43:29.075Z,2.45
2022-11-16T18:45:55.285Z,2.45
2022-11-16T18:48:21.499Z,2.88
2022-11-16T18:50:47.752Z,2.58
2022-11-16T18:53:13.991Z,2.70
2022-11-16T18:55:40.264Z,2.28
2022-11-16T18:58:22.482Z,3.13
2022-11-16T19:00:52.806Z,6.95
2022-11-16T19:03:19.351Z,4.65
2022-11-16T19:05:45.746Z,2.03
2022-11-16T19:08:12.076Z,2.90
2022-11-16T19:10:38.706Z,3.70
2022-11-16T19:13:05.578Z,2.83
2022-11-16T19:15:32.723Z,2.67
2022-11-16T19:18:19.878Z,2.88
2022-11-16T19:20:45.349Z,2.17
2022-11-16T19:23:11.577Z,2.70
2022-11-16T19:25:37.864Z,2.92
2022-11-16T19:28:04.895Z,2.90
2022-11-16T19:32:58.026Z,2.40
2022-11-16T19:37:50.674Z,3.97
2022-11-16T19:40:19.799Z,3.33
2022-11-16T19:42:52.203Z,4.00
2022-11-16T19:45:18.486Z,15.35
2022-11-16T19:47:44.777Z,11.90
2022-11-16T19:50:11.799Z,16.15
2022-11-16T19:55:04.468Z,8.35
2022-11-16T19:57:30.708Z,5.50
2022-11-16T19:59:56.982Z,5.13
2022-11-16T20:02:23.283Z,5.32
2022-11-16T20:04:49.511Z,6.07
2022-11-16T20:07:18.110Z,5.32
2022-11-16T20:09:46.350Z,6.07
2022-11-16T20:12:15.563Z,5.30
2022-11-16T20:14:42.319Z,5.60
2022-11-16T20:17:08.727Z,5.53
2022-11-16T20:19:35.077Z,5.85
2022-11-16T20:22:01.357Z,7.25
2022-11-16T20:24:27.594Z,7.57
2022-11-16T20:26:53.865Z,7.38
2022-11-16T20:29:20.291Z,9.23
2022-11-16T20:31:46.797Z,9.98
2022-11-16T20:34:14.578Z,9.07
2022-11-16T20:36:42.470Z,7.95
2022-11-16T20:39:08.952Z,9.35
2022-11-16T20:41:35.175Z,8.07
2022-11-16T20:44:02.475Z,5.88
2022-11-16T20:46:29.832Z,4.78
2022-11-16T20:48:57.074Z,14.68
2022-11-16T20:51:23.508Z,12.45
2022-11-16T20:53:49.835Z,26.60
2022-11-16T20:56:16.918Z,17.80
2022-11-16T20:58:43.158Z,56.30
2022-11-16T21:01:13.566Z,23.52
2022-11-16T21:03:40.264Z,16.52
2022-11-16T21:06:09.623Z,10.40
2022-11-16T21:08:36.599Z,13.48
2022-11-16T21:13:47.627Z,8.07
2022-11-16T21:16:15.398Z,11.50
2022-11-16T21:18:41.694Z,56.30
2022-11-16T21:21:09.096Z,29.38
2022-11-16T21:23:36.441Z,9.13
2022-11-16T21:26:03.739Z,12.35
2022-11-16T21:28:30.214Z,6.75
2022-11-16T21:31:22.989Z,10.23
2022-11-16T21:33:49.526Z,6.03
2022-11-16T21:36:16.852Z,9.00
2022-11-16T21:38:43.415Z,7.45
2022-11-16T21:41:10.751Z,8.48
2022-11-16T21:43:37.596Z,8.27
2022-11-16T21:48:36.597Z,8.35
2022-11-16T21:51:04.396Z,8.00
2022-11-16T21:53:30.728Z,9.13
2022-11-16T21:55:57.423Z,9.50
2022-11-16T21:58:23.802Z,7.65
2022-11-16T22:00:50.116Z,5.55
2022-11-16T22:03:16.366Z,5.00
2022-11-16T22:06:01.345Z,4.47
2022-11-16T22:08:27.589Z,3.25
2022-11-16T22:10:53.998Z,3.05
2022-11-16T22:13:20.235Z,2.53
2022-11-16T22:15:46.572Z,2.30
2022-11-16T22:18:13.461Z,3.15
2022-11-16T22:23:05.873Z,2.45
2022-11-16T22:25:32.298Z,2.85
2022-11-16T22:28:19.653Z,2.53
2022-11-16T22:30:48.710Z,2.63
2022-11-16T22:33:17.853Z,2.70
2022-11-16T22:35:46.378Z,2.17
2022-11-16T22:38:12.648Z,2.28
2022-11-16T22:40:38.888Z,2.88
2022-11-16T22:43:05.148Z,2.80
2022-11-16T22:45:31.371Z,3.15
2022-11-16T22:47:57.885Z,3.08
2022-11-16T22:50:24.119Z,3.33
2022-11-16T22:52:50.410Z,3.63
2022-11-16T22:55:16.681Z,3.35
2022-11-16T22:57:42.915Z,4.60
2022-11-16T23:00:09.921Z,4.38
2022-11-16T23:05:02.382Z,9.77
2022-11-16T23:07:28.638Z,10.55
2022-11-16T23:09:54.907Z,10.00
2022-11-16T23:12:39.766Z,10.00
2022-11-16T23:15:27.396Z,8.27
2022-11-16T23:17:53.626Z,6.75
2022-11-16T23:20:38.493Z,5.95
2022-11-16T23:23:23.296Z,5.53
2022-11-16T23:26:08.068Z,4.30
2022-11-16T23:28:34.580Z,4.63
2022-11-16T23:31:00.779Z,3.83
2022-11-16T23:33:43.689Z,16.65
2022-11-16T23:36:13.535Z,3.58
2022-11-16T23:38:39.877Z,3.60
2022-11-16T23:41:24.895Z,4.45
2022-11-16T23:44:00.069Z,4.70
2022-11-16T23:46:30.667Z,4.30
2022-11-16T23:48:57.340Z,3.42
2022-11-16T23:51:23.788Z,3.92
2022-11-16T23:53:53.777Z,4.03
2022-11-16T23:56:20.787Z,3.78
